sensor_id;sensor_type;location;lat;lon;timestamp;P1;durP1;ratioP1;P2;durP2;ratioP2
10082;SDS011;5080;48.528;8.078;2022-12-07T00:01:25;3.40;;;3.20;;
10082;SDS011;5080;48.528;8.078;2022-12-07T00:03:54;2.97;;;2.87;;
10082;SDS011;5080;48.528;8.078;2022-12-07T00:06:27;3.20;;;3.00;;
10082;SDS011;5080;48.528;8.078;2022-12-07T00:08:53;2.83;;;2.73;;
10082;SDS011;5080;48.528;8.078;2022-12-07T00:11:21;3.07;;;2.87;;
10082;SDS011;5080;48.528;8.078;2022-12-07T00:13:50;2.77;;;2.67;;
10082;SDS011;5080;48.528;8.078;2022-12-07T00:16:19;2.83;;;2.70;;
10082;SDS011;5080;48.528;8.078;2022-12-07T00:18:48;2.90;;;2.70;;
10082;SDS011;5080;48.528;8.078;2022-12-07T00:21:15;2.90;;;2.70;;
10082;SDS011;5080;48.528;8.078;2022-12-07T00:23:46;3.03;;;2.83;;
10082;SDS011;5080;48.528;8.078;2022-12-07T00:26:15;2.80;;;2.70;;
10082;SDS011;5080;48.528;8.078;2022-12-07T00:28:44;3.00;;;2.80;;
10082;SDS011;5080;48.528;8.078;2022-12-07T00:31:12;2.53;;;2.43;;
10082;SDS011;5080;48.528;8.078;2022-12-07T00:33:40;3.30;;;3.10;;
10082;SDS011;5080;48.528;8.078;2022-12-07T00:36:08;3.00;;;2.90;;
10082;SDS011;5080;48.528;8.078;2022-12-07T00:38:37;2.60;;;2.50;;
10082;SDS011;5080;48.528;8.078;2022-12-07T00:41:06;2.70;;;2.60;;
10082;SDS011;5080;48.528;8.078;2022-12-07T00:43:36;2.57;;;2.47;;
10082;SDS011;5080;48.528;8.078;2022-12-07T00:46:04;2.83;;;2.73;;
10082;SDS011;5080;48.528;8.078;2022-12-07T00:48:30;3.10;;;2.90;;
10082;SDS011;5080;48.528;8.078;2022-12-07T00:50:58;2.50;;;2.40;;
10082;SDS011;5080;48.528;8.078;2022-12-07T00:53:25;3.13;;;2.93;;
10082;SDS011;5080;48.528;8.078;2022-12-07T00:55:51;3.17;;;2.97;;
10082;SDS011;5080;48.528;8.078;2022-12-07T00:58:20;3.17;;;3.00;;
10082;SDS011;5080;48.528;8.078;2022-12-07T01:00:47;3.30;;;3.10;;
10082;SDS011;5080;48.528;8.078;2022-12-07T01:03:14;3.17;;;2.97;;
10082;SDS011;5080;48.528;8.078;2022-12-07T01:05:49;2.80;;;2.60;;
10082;SDS011;5080;48.528;8.078;2022-12-07T01:08:17;3.10;;;2.90;;
10082;SDS011;5080;48.528;8.078;2022-12-07T01:10:45;2.70;;;2.60;;
10082;SDS011;5080;48.528;8.078;2022-12-07T01:13:12;3.13;;;2.93;;
10082;SDS011;5080;48.528;8.078;2022-12-07T01:15:40;2.70;;;2.60;;
10082;SDS011;5080;48.528;8.078;2022-12-07T01:18:08;3.10;;;2.90;;
10082;SDS011;5080;48.528;8.078;2022-12-07T01:20:35;2.80;;;2.70;;
10082;SDS011;5080;48.528;8.078;2022-12-07T01:23:02;2.67;;;2.57;;
10082;SDS011;5080;48.528;8.078;2022-12-07T01:25:29;2.70;;;2.60;;
10082;SDS011;5080;48.528;8.078;2022-12-07T01:27:56;3.10;;;2.90;;
10082;SDS011;5080;48.528;8.078;2022-12-07T01:30:23;2.93;;;2.73;;
10082;SDS011;5080;48.528;8.078;2022-12-07T01:32:51;2.90;;;2.80;;
10082;SDS011;5080;48.528;8.078;2022-12-07T01:35:18;3.00;;;2.80;;
10082;SDS011;5080;48.528;8.078;2022-12-07T01:37:45;2.50;;;2.40;;
10082;SDS011;5080;48.528;8.078;2022-12-07T01:40:12;3.00;;;2.80;;
10082;SDS011;5080;48.528;8.078;2022-12-07T01:42:39;2.93;;;2.83;;
10082;SDS011;5080;48.528;8.078;2022-12-07T01:48:05;2.97;;;2.87;;
10082;SDS011;5080;48.528;8.078;2022-12-07T01:50:35;2.73;;;2.63;;
10082;SDS011;5080;48.528;8.078;2022-12-07T01:53:03;4.07;;;2.60;;
10082;SDS011;5080;48.528;8.078;2022-12-07T01:55:32;2.83;;;2.73;;
10082;SDS011;5080;48.528;8.078;2022-12-07T01:58:02;3.30;;;3.10;;
10082;SDS011;5080;48.528;8.078;2022-12-07T02:00:30;2.50;;;2.40;;
10082;SDS011;5080;48.528;8.078;2022-12-07T02:02:59;2.67;;;2.53;;
10082;SDS011;5080;48.528;8.078;2022-12-07T02:05:31;3.10;;;2.90;;
10082;SDS011;5080;48.528;8.078;2022-12-07T02:08:00;2.87;;;2.77;;
10082;SDS011;5080;48.528;8.078;2022-12-07T02:10:29;2.63;;;2.53;;
10082;SDS011;5080;48.528;8.078;2022-12-07T02:12:57;2.87;;;2.77;;
10082;SDS011;5080;48.528;8.078;2022-12-07T02:15:29;2.47;;;2.37;;
10082;SDS011;5080;48.528;8.078;2022-12-07T02:18:05;2.40;;;2.30;;
10082;SDS011;5080;48.528;8.078;2022-12-07T02:20:42;2.20;;;2.10;;
10082;SDS011;5080;48.528;8.078;2022-12-07T02:29:30;2.30;;;2.20;;
10082;SDS011;5080;48.528;8.078;2022-12-07T02:32:03;2.30;;;2.20;;
10082;SDS011;5080;48.528;8.078;2022-12-07T02:34:38;2.60;;;2.50;;
10082;SDS011;5080;48.528;8.078;2022-12-07T02:37:12;2.23;;;2.13;;
10082;SDS011;5080;48.528;8.078;2022-12-07T02:39:53;2.47;;;2.37;;
10082;SDS011;5080;48.528;8.078;2022-12-07T02:42:25;2.40;;;2.30;;
10082;SDS011;5080;48.528;8.078;2022-12-07T02:44:58;2.83;;;2.63;;
10082;SDS011;5080;48.528;8.078;2022-12-07T02:47:26;2.40;;;2.30;;
10082;SDS011;5080;48.528;8.078;2022-12-07T02:49:54;2.63;;;2.53;;
10082;SDS011;5080;48.528;8.078;2022-12-07T02:52:21;2.50;;;2.40;;
10082;SDS011;5080;48.528;8.078;2022-12-07T02:54:48;2.73;;;2.63;;
10082;SDS011;5080;48.528;8.078;2022-12-07T02:57:20;2.27;;;2.17;;
10082;SDS011;5080;48.528;8.078;2022-12-07T03:00:01;2.60;;;2.50;;
10082;SDS011;5080;48.528;8.078;2022-12-07T03:02:38;2.50;;;2.40;;
10082;SDS011;5080;48.528;8.078;2022-12-07T03:05:21;2.60;;;2.50;;
10082;SDS011;5080;48.528;8.078;2022-12-07T03:07:59;2.63;;;2.53;;
10082;SDS011;5080;48.528;8.078;2022-12-07T03:10:33;3.13;;;2.93;;
10082;SDS011;5080;48.528;8.078;2022-12-07T03:13:08;2.90;;;2.70;;
10082;SDS011;5080;48.528;8.078;2022-12-07T03:15:41;2.60;;;2.50;;
10082;SDS011;5080;48.528;8.078;2022-12-07T03:18:14;2.40;;;2.30;;
10082;SDS011;5080;48.528;8.078;2022-12-07T03:20:45;2.50;;;2.40;;
10082;SDS011;5080;48.528;8.078;2022-12-07T03:23:16;2.93;;;2.77;;
10082;SDS011;5080;48.528;8.078;2022-12-07T03:25:45;2.60;;;2.50;;
10082;SDS011;5080;48.528;8.078;2022-12-07T03:28:16;2.60;;;2.50;;
10082;SDS011;5080;48.528;8.078;2022-12-07T03:30:47;2.70;;;2.60;;
10082;SDS011;5080;48.528;8.078;2022-12-07T03:33:18;2.40;;;2.30;;
10082;SDS011;5080;48.528;8.078;2022-12-07T03:35:48;2.70;;;2.50;;
10082;SDS011;5080;48.528;8.078;2022-12-07T03:38:20;2.53;;;2.43;;
10082;SDS011;5080;48.528;8.078;2022-12-07T03:40:53;2.40;;;2.30;;
10082;SDS011;5080;48.528;8.078;2022-12-07T03:43:27;2.37;;;2.27;;
10082;SDS011;5080;48.528;8.078;2022-12-07T03:45:59;2.47;;;2.37;;
10082;SDS011;5080;48.528;8.078;2022-12-07T03:48:32;2.33;;;2.23;;
10082;SDS011;5080;48.528;8.078;2022-12-07T03:51:06;2.27;;;2.17;;
10082;SDS011;5080;48.528;8.078;2022-12-07T03:53:39;2.30;;;2.20;;
10082;SDS011;5080;48.528;8.078;2022-12-07T03:56:11;2.20;;;2.10;;
10082;SDS011;5080;48.528;8.078;2022-12-07T03:58:38;2.13;;;2.03;;
10082;SDS011;5080;48.528;8.078;2022-12-07T04:01:08;2.37;;;2.27;;
10082;SDS011;5080;48.528;8.078;2022-12-07T04:03:35;2.13;;;2.03;;
10082;SDS011;5080;48.528;8.078;2022-12-07T04:06:02;2.50;;;2.30;;
10082;SDS011;5080;48.528;8.078;2022-12-07T04:08:28;2.30;;;2.20;;
10082;SDS011;5080;48.528;8.078;2022-12-07T04:10:55;2.13;;;2.03;;
10082;SDS011;5080;48.528;8.078;2022-12-07T04:13:22;2.83;;;2.63;;
10082;SDS011;5080;48.528;8.078;2022-12-07T04:15:49;2.50;;;2.40;;
10082;SDS011;5080;48.528;8.078;2022-12-07T04:18:17;2.50;;;2.40;;
10082;SDS011;5080;48.528;8.078;2022-12-07T04:20:45;2.50;;;2.40;;
10082;SDS011;5080;48.528;8.078;2022-12-07T04:23:12;2.47;;;2.37;;
10082;SDS011;5080;48.528;8.078;2022-12-07T04:25:39;2.37;;;2.27;;
10082;SDS011;5080;48.528;8.078;2022-12-07T04:28:06;2.50;;;2.40;;
10082;SDS011;5080;48.528;8.078;2022-12-07T04:30:33;2.40;;;2.30;;
10082;SDS011;5080;48.528;8.078;2022-12-07T04:33:00;2.50;;;2.40;;
10082;SDS011;5080;48.528;8.078;2022-12-07T04:35:28;2.40;;;2.30;;
10082;SDS011;5080;48.528;8.078;2022-12-07T04:37:55;2.43;;;2.33;;
10082;SDS011;5080;48.528;8.078;2022-12-07T04:40:22;2.50;;;2.40;;
10082;SDS011;5080;48.528;8.078;2022-12-07T04:42:49;2.13;;;2.03;;
10082;SDS011;5080;48.528;8.078;2022-12-07T04:45:15;2.70;;;2.50;;
10082;SDS011;5080;48.528;8.078;2022-12-07T04:47:42;2.40;;;2.30;;
10082;SDS011;5080;48.528;8.078;2022-12-07T04:50:09;2.10;;;2.00;;
10082;SDS011;5080;48.528;8.078;2022-12-07T04:52:38;2.27;;;2.17;;
10082;SDS011;5080;48.528;8.078;2022-12-07T04:55:05;2.30;;;2.20;;
10082;SDS011;5080;48.528;8.078;2022-12-07T04:57:32;2.10;;;2.00;;
10082;SDS011;5080;48.528;8.078;2022-12-07T04:59:59;2.20;;;2.10;;
10082;SDS011;5080;48.528;8.078;2022-12-07T05:02:26;2.10;;;2.00;;
10082;SDS011;5080;48.528;8.078;2022-12-07T05:04:52;2.90;;;2.70;;
10082;SDS011;5080;48.528;8.078;2022-12-07T05:07:19;2.40;;;2.30;;
10082;SDS011;5080;48.528;8.078;2022-12-07T05:09:47;2.50;;;2.40;;
10082;SDS011;5080;48.528;8.078;2022-12-07T05:12:14;2.90;;;2.80;;
10082;SDS011;5080;48.528;8.078;2022-12-07T05:14:41;2.70;;;2.50;;
10082;SDS011;5080;48.528;8.078;2022-12-07T05:17:08;2.37;;;2.27;;
10082;SDS011;5080;48.528;8.078;2022-12-07T05:19:36;2.40;;;2.30;;
10082;SDS011;5080;48.528;8.078;2022-12-07T05:22:03;2.30;;;2.20;;
10082;SDS011;5080;48.528;8.078;2022-12-07T05:24:30;2.70;;;2.60;;
10082;SDS011;5080;48.528;8.078;2022-12-07T05:26:58;2.20;;;2.10;;
10082;SDS011;5080;48.528;8.078;2022-12-07T05:29:25;2.10;;;2.00;;
10082;SDS011;5080;48.528;8.078;2022-12-07T05:31:52;3.17;;;2.97;;
10082;SDS011;5080;48.528;8.078;2022-12-07T05:34:18;2.70;;;2.60;;
10082;SDS011;5080;48.528;8.078;2022-12-07T05:36:45;2.70;;;2.53;;
10082;SDS011;5080;48.528;8.078;2022-12-07T05:39:12;2.30;;;2.20;;
10082;SDS011;5080;48.528;8.078;2022-12-07T05:41:39;2.40;;;2.30;;
10082;SDS011;5080;48.528;8.078;2022-12-07T05:44:24;2.40;;;2.27;;
10082;SDS011;5080;48.528;8.078;2022-12-07T05:46:51;2.30;;;2.20;;
10082;SDS011;5080;48.528;8.078;2022-12-07T05:49:18;2.33;;;2.23;;
10082;SDS011;5080;48.528;8.078;2022-12-07T05:51:45;2.30;;;2.20;;
10082;SDS011;5080;48.528;8.078;2022-12-07T05:54:11;2.50;;;2.40;;
10082;SDS011;5080;48.528;8.078;2022-12-07T05:56:38;2.47;;;2.37;;
10082;SDS011;5080;48.528;8.078;2022-12-07T05:59:07;2.20;;;2.10;;
10082;SDS011;5080;48.528;8.078;2022-12-07T06:01:54;2.77;;;2.47;;
10082;SDS011;5080;48.528;8.078;2022-12-07T06:04:22;2.37;;;2.27;;
10082;SDS011;5080;48.528;8.078;2022-12-07T06:06:51;2.47;;;2.37;;
10082;SDS011;5080;48.528;8.078;2022-12-07T06:09:18;2.30;;;2.20;;
10082;SDS011;5080;48.528;8.078;2022-12-07T06:11:46;2.07;;;1.97;;
10082;SDS011;5080;48.528;8.078;2022-12-07T06:14:30;2.23;;;2.13;;
10082;SDS011;5080;48.528;8.078;2022-12-07T06:16:59;2.37;;;2.27;;
10082;SDS011;5080;48.528;8.078;2022-12-07T06:19:26;2.10;;;2.00;;
10082;SDS011;5080;48.528;8.078;2022-12-07T06:21:53;2.00;;;1.90;;
10082;SDS011;5080;48.528;8.078;2022-12-07T06:24:20;2.43;;;2.33;;
10082;SDS011;5080;48.528;8.078;2022-12-07T06:26:47;2.57;;;2.47;;
10082;SDS011;5080;48.528;8.078;2022-12-07T06:29:14;2.50;;;2.40;;
10082;SDS011;5080;48.528;8.078;2022-12-07T06:31:42;2.00;;;1.90;;
10082;SDS011;5080;48.528;8.078;2022-12-07T06:34:11;2.20;;;2.10;;
10082;SDS011;5080;48.528;8.078;2022-12-07T06:36:39;2.43;;;2.30;;
10082;SDS011;5080;48.528;8.078;2022-12-07T06:39:06;2.17;;;2.07;;
10082;SDS011;5080;48.528;8.078;2022-12-07T06:41:34;2.30;;;2.20;;
10082;SDS011;5080;48.528;8.078;2022-12-07T06:44:01;2.50;;;2.30;;
10082;SDS011;5080;48.528;8.078;2022-12-07T06:46:28;2.20;;;2.10;;
10082;SDS011;5080;48.528;8.078;2022-12-07T06:48:55;2.10;;;2.00;;
10082;SDS011;5080;48.528;8.078;2022-12-07T06:51:23;1.90;;;1.80;;
10082;SDS011;5080;48.528;8.078;2022-12-07T06:53:50;2.07;;;1.97;;
10082;SDS011;5080;48.528;8.078;2022-12-07T06:56:17;2.40;;;2.13;;
10082;SDS011;5080;48.528;8.078;2022-12-07T06:58:45;2.30;;;2.10;;
10082;SDS011;5080;48.528;8.078;2022-12-07T07:01:12;2.30;;;2.20;;
10082;SDS011;5080;48.528;8.078;2022-12-07T07:03:40;2.13;;;2.03;;
10082;SDS011;5080;48.528;8.078;2022-12-07T07:06:08;2.33;;;2.23;;
10082;SDS011;5080;48.528;8.078;2022-12-07T07:08:36;2.10;;;2.00;;
10082;SDS011;5080;48.528;8.078;2022-12-07T07:11:04;2.30;;;2.20;;
10082;SDS011;5080;48.528;8.078;2022-12-07T07:13:32;2.27;;;2.17;;
10082;SDS011;5080;48.528;8.078;2022-12-07T07:16:00;2.40;;;2.30;;
10082;SDS011;5080;48.528;8.078;2022-12-07T07:18:27;2.40;;;2.30;;
10082;SDS011;5080;48.528;8.078;2022-12-07T07:20:55;2.23;;;2.13;;
10082;SDS011;5080;48.528;8.078;2022-12-07T07:23:22;2.30;;;2.20;;
10082;SDS011;5080;48.528;8.078;2022-12-07T07:25:50;2.30;;;2.20;;
10082;SDS011;5080;48.528;8.078;2022-12-07T07:28:17;2.20;;;2.10;;
10082;SDS011;5080;48.528;8.078;2022-12-07T07:30:44;2.30;;;2.20;;
10082;SDS011;5080;48.528;8.078;2022-12-07T07:33:11;2.13;;;2.03;;
10082;SDS011;5080;48.528;8.078;2022-12-07T07:35:38;2.40;;;2.30;;
10082;SDS011;5080;48.528;8.078;2022-12-07T07:38:05;2.17;;;2.07;;
10082;SDS011;5080;48.528;8.078;2022-12-07T07:40:33;1.90;;;1.80;;
10082;SDS011;5080;48.528;8.078;2022-12-07T07:43:02;2.00;;;1.90;;
10082;SDS011;5080;48.528;8.078;2022-12-07T07:45:29;1.87;;;1.77;;
10082;SDS011;5080;48.528;8.078;2022-12-07T07:47:56;1.80;;;1.70;;
10082;SDS011;5080;48.528;8.078;2022-12-07T07:50:22;2.00;;;1.90;;
10082;SDS011;5080;48.528;8.078;2022-12-07T07:52:49;1.90;;;1.80;;
10082;SDS011;5080;48.528;8.078;2022-12-07T07:55:17;2.30;;;2.20;;
10082;SDS011;5080;48.528;8.078;2022-12-07T07:57:44;1.93;;;1.83;;
10082;SDS011;5080;48.528;8.078;2022-12-07T08:00:13;2.20;;;2.10;;
10082;SDS011;5080;48.528;8.078;2022-12-07T08:02:42;2.40;;;2.30;;
10082;SDS011;5080;48.528;8.078;2022-12-07T08:05:10;2.10;;;2.00;;
10082;SDS011;5080;48.528;8.078;2022-12-07T08:07:37;2.03;;;1.93;;
10082;SDS011;5080;48.528;8.078;2022-12-07T08:10:05;2.33;;;2.23;;
10082;SDS011;5080;48.528;8.078;2022-12-07T08:12:35;2.43;;;2.23;;
10082;SDS011;5080;48.528;8.078;2022-12-07T08:15:25;2.20;;;2.10;;
10082;SDS011;5080;48.528;8.078;2022-12-07T08:17:53;2.27;;;2.17;;
10082;SDS011;5080;48.528;8.078;2022-12-07T08:20:20;2.30;;;2.20;;
10082;SDS011;5080;48.528;8.078;2022-12-07T08:22:47;2.27;;;2.17;;
10082;SDS011;5080;48.528;8.078;2022-12-07T08:25:14;1.97;;;1.87;;
10082;SDS011;5080;48.528;8.078;2022-12-07T08:27:41;2.10;;;2.00;;
10082;SDS011;5080;48.528;8.078;2022-12-07T08:30:08;2.40;;;2.30;;
10082;SDS011;5080;48.528;8.078;2022-12-07T08:32:36;2.30;;;2.20;;
10082;SDS011;5080;48.528;8.078;2022-12-07T08:35:03;2.40;;;2.30;;
10082;SDS011;5080;48.528;8.078;2022-12-07T08:37:31;1.90;;;1.80;;
10082;SDS011;5080;48.528;8.078;2022-12-07T08:39:57;2.13;;;2.03;;
10082;SDS011;5080;48.528;8.078;2022-12-07T08:42:24;2.07;;;1.97;;
10082;SDS011;5080;48.528;8.078;2022-12-07T08:44:54;2.10;;;2.00;;
10082;SDS011;5080;48.528;8.078;2022-12-07T08:47:21;2.10;;;2.00;;
10082;SDS011;5080;48.528;8.078;2022-12-07T08:49:50;2.30;;;2.20;;
10082;SDS011;5080;48.528;8.078;2022-12-07T08:52:19;2.40;;;2.30;;
10082;SDS011;5080;48.528;8.078;2022-12-07T08:54:46;1.90;;;1.80;;
10082;SDS011;5080;48.528;8.078;2022-12-07T08:57:13;2.07;;;1.97;;
10082;SDS011;5080;48.528;8.078;2022-12-07T08:59:40;1.70;;;1.60;;
10082;SDS011;5080;48.528;8.078;2022-12-07T09:02:07;1.93;;;1.83;;
10082;SDS011;5080;48.528;8.078;2022-12-07T09:04:33;1.90;;;1.80;;
10082;SDS011;5080;48.528;8.078;2022-12-07T09:07:02;2.20;;;2.10;;
10082;SDS011;5080;48.528;8.078;2022-12-07T09:09:30;2.00;;;1.90;;
10082;SDS011;5080;48.528;8.078;2022-12-07T09:11:56;2.00;;;1.90;;
10082;SDS011;5080;48.528;8.078;2022-12-07T09:14:23;2.20;;;2.10;;
10082;SDS011;5080;48.528;8.078;2022-12-07T09:16:50;2.10;;;2.00;;
10082;SDS011;5080;48.528;8.078;2022-12-07T09:19:17;2.10;;;2.00;;
10082;SDS011;5080;48.528;8.078;2022-12-07T09:21:44;2.07;;;1.97;;
10082;SDS011;5080;48.528;8.078;2022-12-07T09:24:12;5.20;;;2.50;;
10082;SDS011;5080;48.528;8.078;2022-12-07T09:26:39;2.40;;;2.30;;
10082;SDS011;5080;48.528;8.078;2022-12-07T09:29:06;2.40;;;2.30;;
10082;SDS011;5080;48.528;8.078;2022-12-07T09:31:35;2.27;;;2.17;;
10082;SDS011;5080;48.528;8.078;2022-12-07T09:34:02;1.97;;;1.87;;
10082;SDS011;5080;48.528;8.078;2022-12-07T09:36:29;1.87;;;1.77;;
10082;SDS011;5080;48.528;8.078;2022-12-07T09:38:56;1.83;;;1.73;;
10082;SDS011;5080;48.528;8.078;2022-12-07T09:41:25;1.90;;;1.80;;
10082;SDS011;5080;48.528;8.078;2022-12-07T09:44:02;2.10;;;2.00;;
10082;SDS011;5080;48.528;8.078;2022-12-07T09:46:32;1.63;;;1.57;;
10082;SDS011;5080;48.528;8.078;2022-12-07T09:49:02;2.10;;;1.83;;
10082;SDS011;5080;48.528;8.078;2022-12-07T09:51:30;2.00;;;1.90;;
10082;SDS011;5080;48.528;8.078;2022-12-07T09:53:58;1.83;;;1.73;;
10082;SDS011;5080;48.528;8.078;2022-12-07T09:56:28;1.80;;;1.70;;
10082;SDS011;5080;48.528;8.078;2022-12-07T09:58:58;2.00;;;1.90;;
10082;SDS011;5080;48.528;8.078;2022-12-07T10:01:27;1.87;;;1.77;;
10082;SDS011;5080;48.528;8.078;2022-12-07T10:03:59;2.10;;;2.00;;
10082;SDS011;5080;48.528;8.078;2022-12-07T10:06:31;1.90;;;1.80;;
10082;SDS011;5080;48.528;8.078;2022-12-07T10:08:58;1.63;;;1.53;;
10082;SDS011;5080;48.528;8.078;2022-12-07T10:11:26;1.80;;;1.70;;
10082;SDS011;5080;48.528;8.078;2022-12-07T10:13:53;1.83;;;1.73;;
10082;SDS011;5080;48.528;8.078;2022-12-07T10:16:35;1.80;;;1.70;;
10082;SDS011;5080;48.528;8.078;2022-12-07T10:21:59;2.37;;;1.97;;
10082;SDS011;5080;48.528;8.078;2022-12-07T10:24:28;1.90;;;1.80;;
10082;SDS011;5080;48.528;8.078;2022-12-07T10:26:56;2.07;;;1.97;;
10082;SDS011;5080;48.528;8.078;2022-12-07T10:29:24;1.77;;;1.67;;
10082;SDS011;5080;48.528;8.078;2022-12-07T10:31:57;1.67;;;1.60;;
10082;SDS011;5080;48.528;8.078;2022-12-07T10:34:25;1.80;;;1.70;;
10082;SDS011;5080;48.528;8.078;2022-12-07T10:36:55;1.70;;;1.60;;
10082;SDS011;5080;48.528;8.078;2022-12-07T10:39:40;1.90;;;1.80;;
10082;SDS011;5080;48.528;8.078;2022-12-07T10:42:15;1.40;;;1.40;;
10082;SDS011;5080;48.528;8.078;2022-12-07T10:44:43;1.80;;;1.70;;
10082;SDS011;5080;48.528;8.078;2022-12-07T10:47:13;1.70;;;1.60;;
10082;SDS011;5080;48.528;8.078;2022-12-07T10:50:06;1.70;;;1.60;;
10082;SDS011;5080;48.528;8.078;2022-12-07T10:52:58;1.80;;;1.70;;
10082;SDS011;5080;48.528;8.078;2022-12-07T10:55:40;1.60;;;1.50;;
10082;SDS011;5080;48.528;8.078;2022-12-07T10:58:23;1.50;;;1.40;;
10082;SDS011;5080;48.528;8.078;2022-12-07T11:01:03;1.60;;;1.50;;
10082;SDS011;5080;48.528;8.078;2022-12-07T11:03:45;1.70;;;1.60;;
10082;SDS011;5080;48.528;8.078;2022-12-07T11:06:22;1.37;;;1.37;;
10082;SDS011;5080;48.528;8.078;2022-12-07T11:08:59;1.70;;;1.60;;
10082;SDS011;5080;48.528;8.078;2022-12-07T11:11:35;1.47;;;1.47;;
10082;SDS011;5080;48.528;8.078;2022-12-07T11:14:12;1.50;;;1.40;;
10082;SDS011;5080;48.528;8.078;2022-12-07T11:16:50;1.40;;;1.40;;
10082;SDS011;5080;48.528;8.078;2022-12-07T11:22:17;1.40;;;1.40;;
10082;SDS011;5080;48.528;8.078;2022-12-07T11:24:49;1.70;;;1.60;;
10082;SDS011;5080;48.528;8.078;2022-12-07T11:27:24;1.47;;;1.43;;
10082;SDS011;5080;48.528;8.078;2022-12-07T11:30:10;1.30;;;1.30;;
10082;SDS011;5080;48.528;8.078;2022-12-07T11:32:50;1.40;;;1.40;;
10082;SDS011;5080;48.528;8.078;2022-12-07T11:35:30;1.60;;;1.50;;
10082;SDS011;5080;48.528;8.078;2022-12-07T11:38:07;1.73;;;1.60;;
10082;SDS011;5080;48.528;8.078;2022-12-07T11:40:36;1.50;;;1.50;;
10082;SDS011;5080;48.528;8.078;2022-12-07T11:43:09;1.57;;;1.47;;
10082;SDS011;5080;48.528;8.078;2022-12-07T11:45:43;1.40;;;1.40;;
10082;SDS011;5080;48.528;8.078;2022-12-07T11:48:14;1.60;;;1.50;;
10082;SDS011;5080;48.528;8.078;2022-12-07T11:50:47;1.53;;;1.50;;
10082;SDS011;5080;48.528;8.078;2022-12-07T11:53:17;1.40;;;1.30;;
10082;SDS011;5080;48.528;8.078;2022-12-07T11:55:48;1.27;;;1.27;;
10082;SDS011;5080;48.528;8.078;2022-12-07T11:58:20;1.40;;;1.40;;
10082;SDS011;5080;48.528;8.078;2022-12-07T12:01:06;1.60;;;1.50;;
10082;SDS011;5080;48.528;8.078;2022-12-07T12:03:40;1.43;;;1.43;;
10082;SDS011;5080;48.528;8.078;2022-12-07T12:06:10;1.50;;;1.50;;
10082;SDS011;5080;48.528;8.078;2022-12-07T12:08:38;1.40;;;1.40;;
10082;SDS011;5080;48.528;8.078;2022-12-07T12:11:13;1.30;;;1.30;;
10082;SDS011;5080;48.528;8.078;2022-12-07T12:16:56;1.37;;;1.37;;
10082;SDS011;5080;48.528;8.078;2022-12-07T12:19:37;1.27;;;1.27;;
10082;SDS011;5080;48.528;8.078;2022-12-07T12:22:10;1.20;;;1.20;;
10082;SDS011;5080;48.528;8.078;2022-12-07T12:24:41;1.30;;;1.30;;
10082;SDS011;5080;48.528;8.078;2022-12-07T12:27:09;1.20;;;1.20;;
10082;SDS011;5080;48.528;8.078;2022-12-07T12:29:45;1.17;;;1.17;;
10082;SDS011;5080;48.528;8.078;2022-12-07T12:32:23;1.07;;;1.07;;
10082;SDS011;5080;48.528;8.078;2022-12-07T12:34:58;1.10;;;1.10;;
10082;SDS011;5080;48.528;8.078;2022-12-07T12:37:44;1.10;;;1.10;;
10082;SDS011;5080;48.528;8.078;2022-12-07T12:55:41;1.60;;;1.50;;
10082;SDS011;5080;48.528;8.078;2022-12-07T13:10:22;1.10;;;1.10;;
10082;SDS011;5080;48.528;8.078;2022-12-07T13:12:56;1.10;;;1.10;;
10082;SDS011;5080;48.528;8.078;2022-12-07T13:15:34;0.90;;;0.90;;
10082;SDS011;5080;48.528;8.078;2022-12-07T13:18:03;1.13;;;1.13;;
10082;SDS011;5080;48.528;8.078;2022-12-07T13:20:50;1.10;;;1.10;;
10082;SDS011;5080;48.528;8.078;2022-12-07T13:23:20;1.10;;;1.10;;
10082;SDS011;5080;48.528;8.078;2022-12-07T13:25:57;0.97;;;0.97;;
10082;SDS011;5080;48.528;8.078;2022-12-07T13:28:45;1.13;;;1.03;;
10082;SDS011;5080;48.528;8.078;2022-12-07T13:33:59;1.20;;;1.20;;
10082;SDS011;5080;48.528;8.078;2022-12-07T13:36:28;1.20;;;1.20;;
10082;SDS011;5080;48.528;8.078;2022-12-07T13:39:09;1.10;;;1.10;;
10082;SDS011;5080;48.528;8.078;2022-12-07T13:41:43;1.10;;;1.10;;
10082;SDS011;5080;48.528;8.078;2022-12-07T13:44:11;1.10;;;1.10;;
10082;SDS011;5080;48.528;8.078;2022-12-07T13:46:44;1.00;;;1.00;;
10082;SDS011;5080;48.528;8.078;2022-12-07T13:49:18;1.10;;;1.10;;
10082;SDS011;5080;48.528;8.078;2022-12-07T13:51:49;1.20;;;1.20;;
10082;SDS011;5080;48.528;8.078;2022-12-07T13:54:16;1.10;;;1.10;;
10082;SDS011;5080;48.528;8.078;2022-12-07T13:56:43;1.10;;;1.10;;
10082;SDS011;5080;48.528;8.078;2022-12-07T13:59:15;1.10;;;1.10;;
10082;SDS011;5080;48.528;8.078;2022-12-07T14:01:44;1.10;;;1.10;;
10082;SDS011;5080;48.528;8.078;2022-12-07T14:04:18;1.00;;;1.00;;
10082;SDS011;5080;48.528;8.078;2022-12-07T14:06:55;1.20;;;1.20;;
10082;SDS011;5080;48.528;8.078;2022-12-07T14:09:23;1.13;;;1.13;;
10082;SDS011;5080;48.528;8.078;2022-12-07T14:11:51;1.20;;;1.20;;
10082;SDS011;5080;48.528;8.078;2022-12-07T14:14:20;1.30;;;1.30;;
10082;SDS011;5080;48.528;8.078;2022-12-07T14:16:58;1.20;;;1.20;;
10082;SDS011;5080;48.528;8.078;2022-12-07T14:19:44;1.30;;;1.20;;
10082;SDS011;5080;48.528;8.078;2022-12-07T14:22:21;1.40;;;1.30;;
10082;SDS011;5080;48.528;8.078;2022-12-07T14:24:50;1.30;;;1.30;;
10082;SDS011;5080;48.528;8.078;2022-12-07T14:27:18;1.30;;;1.30;;
10082;SDS011;5080;48.528;8.078;2022-12-07T14:29:46;1.33;;;1.33;;
10082;SDS011;5080;48.528;8.078;2022-12-07T14:32:20;1.33;;;1.33;;
10082;SDS011;5080;48.528;8.078;2022-12-07T14:34:56;1.50;;;1.40;;
10082;SDS011;5080;48.528;8.078;2022-12-07T14:37:26;1.30;;;1.30;;
10082;SDS011;5080;48.528;8.078;2022-12-07T14:39:54;1.30;;;1.30;;
10082;SDS011;5080;48.528;8.078;2022-12-07T14:42:21;1.33;;;1.23;;
10082;SDS011;5080;48.528;8.078;2022-12-07T14:44:50;1.10;;;1.10;;
10082;SDS011;5080;48.528;8.078;2022-12-07T14:47:16;1.30;;;1.30;;
10082;SDS011;5080;48.528;8.078;2022-12-07T14:49:43;1.10;;;1.10;;
10082;SDS011;5080;48.528;8.078;2022-12-07T14:52:12;1.37;;;1.37;;
10082;SDS011;5080;48.528;8.078;2022-12-07T14:54:42;1.10;;;1.10;;
10082;SDS011;5080;48.528;8.078;2022-12-07T14:57:10;1.30;;;1.30;;
10082;SDS011;5080;48.528;8.078;2022-12-07T14:59:37;1.20;;;1.20;;
10082;SDS011;5080;48.528;8.078;2022-12-07T15:02:04;1.30;;;1.30;;
10082;SDS011;5080;48.528;8.078;2022-12-07T15:04:32;1.30;;;1.30;;
10082;SDS011;5080;48.528;8.078;2022-12-07T15:07:00;1.40;;;1.40;;
10082;SDS011;5080;48.528;8.078;2022-12-07T15:09:29;1.53;;;1.43;;
10082;SDS011;5080;48.528;8.078;2022-12-07T15:11:57;1.40;;;1.30;;
10082;SDS011;5080;48.528;8.078;2022-12-07T15:14:24;1.30;;;1.30;;
10082;SDS011;5080;48.528;8.078;2022-12-07T15:16:51;1.60;;;1.50;;
10082;SDS011;5080;48.528;8.078;2022-12-07T15:19:18;1.70;;;1.60;;
10082;SDS011;5080;48.528;8.078;2022-12-07T15:21:47;1.27;;;1.27;;
10082;SDS011;5080;48.528;8.078;2022-12-07T15:24:15;1.10;;;1.10;;
10082;SDS011;5080;48.528;8.078;2022-12-07T15:26:42;1.67;;;1.57;;
10082;SDS011;5080;48.528;8.078;2022-12-07T15:29:11;1.23;;;1.23;;
10082;SDS011;5080;48.528;8.078;2022-12-07T15:31:39;1.50;;;1.50;;
10082;SDS011;5080;48.528;8.078;2022-12-07T15:34:06;1.13;;;1.13;;
10082;SDS011;5080;48.528;8.078;2022-12-07T15:36:34;1.30;;;1.30;;
10082;SDS011;5080;48.528;8.078;2022-12-07T15:39:01;1.33;;;1.33;;
10082;SDS011;5080;48.528;8.078;2022-12-07T15:41:29;1.50;;;1.50;;
10082;SDS011;5080;48.528;8.078;2022-12-07T15:43:56;1.50;;;1.40;;
10082;SDS011;5080;48.528;8.078;2022-12-07T15:46:41;1.30;;;1.20;;
10082;SDS011;5080;48.528;8.078;2022-12-07T15:49:10;1.83;;;1.73;;
10082;SDS011;5080;48.528;8.078;2022-12-07T15:51:39;1.50;;;1.50;;
10082;SDS011;5080;48.528;8.078;2022-12-07T15:54:07;1.63;;;1.53;;
10082;SDS011;5080;48.528;8.078;2022-12-07T15:56:37;2.60;;;2.50;;
10082;SDS011;5080;48.528;8.078;2022-12-07T15:59:04;2.30;;;2.20;;
10082;SDS011;5080;48.528;8.078;2022-12-07T16:01:32;2.37;;;2.27;;
10082;SDS011;5080;48.528;8.078;2022-12-07T16:04:00;2.40;;;2.20;;
10082;SDS011;5080;48.528;8.078;2022-12-07T16:06:27;2.47;;;2.37;;